sensor_id;sensor_type;location;lat;lon;timestamp;temperature;humidity
6520;DHT22;3293;51.690;5.982;2023-03-18T00:04:11;12.40;99.90
6520;DHT22;3293;51.690;5.982;2023-03-18T00:09:12;12.20;99.90
6520;DHT22;3293;51.690;5.982;2023-03-18T00:14:13;12.00;99.90
6520;DHT22;3293;51.690;5.982;2023-03-18T00:19:14;11.90;99.90
6520;DHT22;3293;51.690;5.982;2023-03-18T00:24:14;11.90;99.90
6520;DHT22;3293;51.690;5.982;2023-03-18T00:29:15;11.80;99.90
6520;DHT22;3293;51.690;5.982;2023-03-18T00:34:15;11.80;99.90
6520;DHT22;3293;51.690;5.982;2023-03-18T00:39:16;11.90;99.90
6520;DHT22;3293;51.690;5.982;2023-03-18T00:44:17;11.90;99.90
6520;DHT22;3293;51.690;5.982;2023-03-18T00:49:18;11.90;99.90
6520;DHT22;3293;51.690;5.982;2023-03-18T00:54:19;11.90;99.90
6520;DHT22;3293;51.690;5.982;2023-03-18T00:59:19;11.80;99.90
6520;DHT22;3293;51.690;5.982;2023-03-18T01:04:20;11.80;99.90
6520;DHT22;3293;51.690;5.982;2023-03-18T01:09:20;11.80;99.90
6520;DHT22;3293;51.690;5.982;2023-03-18T01:14:21;11.70;99.90
6520;DHT22;3293;51.690;5.982;2023-03-18T01:19:21;11.70;99.90
6520;DHT22;3293;51.690;5.982;2023-03-18T01:24:22;11.70;99.90
6520;DHT22;3293;51.690;5.982;2023-03-18T01:29:22;11.70;99.90
6520;DHT22;3293;51.690;5.982;2023-03-18T01:34:23;11.70;99.90
6520;DHT22;3293;51.690;5.982;2023-03-18T01:39:23;11.70;99.90
6520;DHT22;3293;51.690;5.982;2023-03-18T01:44:23;11.70;99.90
6520;DHT22;3293;51.690;5.982;2023-03-18T01:49:34;11.80;99.90
6520;DHT22;3293;51.690;5.982;2023-03-18T01:54:39;11.80;99.90
6520;DHT22;3293;51.690;5.982;2023-03-18T01:59:41;11.80;99.90
6520;DHT22;3293;51.690;5.982;2023-03-18T02:04:46;11.80;99.90
6520;DHT22;3293;51.690;5.982;2023-03-18T02:09:48;11.70;99.90
6520;DHT22;3293;51.690;5.982;2023-03-18T02:14:50;11.70;99.90
6520;DHT22;3293;51.690;5.982;2023-03-18T02:20:18;11.70;99.90
6520;DHT22;3293;51.690;5.982;2023-03-18T02:31:02;11.50;99.90
6520;DHT22;3293;51.690;5.982;2023-03-18T02:36:09;11.50;99.90
6520;DHT22;3293;51.690;5.982;2023-03-18T02:41:22;11.50;99.90
6520;DHT22;3293;51.690;5.982;2023-03-18T02:47:03;11.40;99.90
6520;DHT22;3293;51.690;5.982;2023-03-18T02:51:55;11.40;99.90
6520;DHT22;3293;51.690;5.982;2023-03-18T02:56:56;11.40;99.90
6520;DHT22;3293;51.690;5.982;2023-03-18T03:01:56;11.40;99.90
6520;DHT22;3293;51.690;5.982;2023-03-18T03:06:56;11.40;99.90
6520;DHT22;3293;51.690;5.982;2023-03-18T03:11:56;11.40;99.90
6520;DHT22;3293;51.690;5.982;2023-03-18T03:16:56;11.40;99.90
6520;DHT22;3293;51.690;5.982;2023-03-18T03:21:58;11.40;99.90
6520;DHT22;3293;51.690;5.982;2023-03-18T03:26:59;11.30;99.90
6520;DHT22;3293;51.690;5.982;2023-03-18T03:31:59;11.30;99.90
6520;DHT22;3293;51.690;5.982;2023-03-18T03:37:00;11.20;99.90
6520;DHT22;3293;51.690;5.982;2023-03-18T03:42:00;11.10;99.90
6520;DHT22;3293;51.690;5.982;2023-03-18T03:47:00;11.10;99.90
6520;DHT22;3293;51.690;5.982;2023-03-18T03:52:00;11.10;99.90
6520;DHT22;3293;51.690;5.982;2023-03-18T03:57:00;11.00;99.90
6520;DHT22;3293;51.690;5.982;2023-03-18T04:02:00;11.10;99.90
6520;DHT22;3293;51.690;5.982;2023-03-18T04:07:01;11.10;99.90
6520;DHT22;3293;51.690;5.982;2023-03-18T04:12:02;11.00;99.90
6520;DHT22;3293;51.690;5.982;2023-03-18T04:17:03;11.00;99.90
6520;DHT22;3293;51.690;5.982;2023-03-18T04:22:03;11.00;99.90
6520;DHT22;3293;51.690;5.982;2023-03-18T04:27:03;11.00;99.90
6520;DHT22;3293;51.690;5.982;2023-03-18T04:32:03;11.00;99.90
6520;DHT22;3293;51.690;5.982;2023-03-18T04:37:04;10.90;99.90
6520;DHT22;3293;51.690;5.982;2023-03-18T04:42:04;10.80;99.90
6520;DHT22;3293;51.690;5.982;2023-03-18T04:47:04;10.80;99.90
6520;DHT22;3293;51.690;5.982;2023-03-18T04:52:05;10.80;99.90
6520;DHT22;3293;51.690;5.982;2023-03-18T04:57:06;10.80;99.90
6520;DHT22;3293;51.690;5.982;2023-03-18T05:02:06;10.80;99.90
6520;DHT22;3293;51.690;5.982;2023-03-18T05:07:11;10.90;99.90
6520;DHT22;3293;51.690;5.982;2023-03-18T05:12:13;10.80;99.90
6520;DHT22;3293;51.690;5.982;2023-03-18T05:17:14;10.80;99.90
6520;DHT22;3293;51.690;5.982;2023-03-18T05:22:16;10.80;99.90
6520;DHT22;3293;51.690;5.982;2023-03-18T05:27:18;10.80;99.90
6520;DHT22;3293;51.690;5.982;2023-03-18T05:32:18;10.80;99.90
6520;DHT22;3293;51.690;5.982;2023-03-18T05:37:18;10.80;99.90
6520;DHT22;3293;51.690;5.982;2023-03-18T05:42:18;10.80;99.90
6520;DHT22;3293;51.690;5.982;2023-03-18T05:47:18;10.80;99.90
6520;DHT22;3293;51.690;5.982;2023-03-18T05:52:18;10.80;99.90
6520;DHT22;3293;51.690;5.982;2023-03-18T05:57:19;10.80;99.90
6520;DHT22;3293;51.690;5.982;2023-03-18T06:02:19;10.90;99.90
6520;DHT22;3293;51.690;5.982;2023-03-18T06:07:20;10.90;99.90
6520;DHT22;3293;51.690;5.982;2023-03-18T06:12:21;10.90;99.90
6520;DHT22;3293;51.690;5.982;2023-03-18T06:17:25;11.00;99.90
6520;DHT22;3293;51.690;5.982;2023-03-18T06:22:26;11.00;99.90
6520;DHT22;3293;51.690;5.982;2023-03-18T06:27:26;11.00;99.90
6520;DHT22;3293;51.690;5.982;2023-03-18T06:32:27;11.00;99.90
6520;DHT22;3293;51.690;5.982;2023-03-18T06:37:28;11.00;99.90
6520;DHT22;3293;51.690;5.982;2023-03-18T06:42:28;11.10;99.90
6520;DHT22;3293;51.690;5.982;2023-03-18T06:47:28;11.10;99.90
6520;DHT22;3293;51.690;5.982;2023-03-18T06:52:28;11.20;99.90
6520;DHT22;3293;51.690;5.982;2023-03-18T06:57:29;11.20;99.90
6520;DHT22;3293;51.690;5.982;2023-03-18T07:02:29;11.50;99.90
6520;DHT22;3293;51.690;5.982;2023-03-18T07:07:29;11.70;99.90
6520;DHT22;3293;51.690;5.982;2023-03-18T07:12:30;11.60;99.90
6520;DHT22;3293;51.690;5.982;2023-03-18T07:17:30;11.90;99.90
6520;DHT22;3293;51.690;5.982;2023-03-18T07:22:30;12.80;99.90
6520;DHT22;3293;51.690;5.982;2023-03-18T07:27:30;14.00;99.90
6520;DHT22;3293;51.690;5.982;2023-03-18T07:32:31;15.30;99.90
6520;DHT22;3293;51.690;5.982;2023-03-18T07:37:32;16.30;99.90
6520;DHT22;3293;51.690;5.982;2023-03-18T07:42:32;17.20;99.90
6520;DHT22;3293;51.690;5.982;2023-03-18T07:47:32;17.20;99.90
6520;DHT22;3293;51.690;5.982;2023-03-18T07:52:32;16.30;99.90
6520;DHT22;3293;51.690;5.982;2023-03-18T07:57:33;15.30;99.90
6520;DHT22;3293;51.690;5.982;2023-03-18T08:02:33;14.60;99.90
6520;DHT22;3293;51.690;5.982;2023-03-18T08:07:35;14.40;99.90
6520;DHT22;3293;51.690;5.982;2023-03-18T08:12:35;14.70;99.90
6520;DHT22;3293;51.690;5.982;2023-03-18T08:17:35;14.40;99.90
6520;DHT22;3293;51.690;5.982;2023-03-18T08:22:35;14.50;99.90
6520;DHT22;3293;51.690;5.982;2023-03-18T08:27:35;14.60;99.90
6520;DHT22;3293;51.690;5.982;2023-03-18T08:32:35;15.00;99.90
6520;DHT22;3293;51.690;5.982;2023-03-18T08:37:36;14.90;99.90
6520;DHT22;3293;51.690;5.982;2023-03-18T08:42:37;15.20;99.90
6520;DHT22;3293;51.690;5.982;2023-03-18T08:47:37;15.80;99.90
6520;DHT22;3293;51.690;5.982;2023-03-18T08:52:38;16.90;99.90
6520;DHT22;3293;51.690;5.982;2023-03-18T08:57:40;16.40;99.90
6520;DHT22;3293;51.690;5.982;2023-03-18T09:02:42;15.50;99.90
6520;DHT22;3293;51.690;5.982;2023-03-18T09:07:42;15.20;99.90
6520;DHT22;3293;51.690;5.982;2023-03-18T09:12:43;15.00;99.90
6520;DHT22;3293;51.690;5.982;2023-03-18T09:17:43;15.10;99.90
6520;DHT22;3293;51.690;5.982;2023-03-18T09:22:45;14.90;99.90
6520;DHT22;3293;51.690;5.982;2023-03-18T09:27:46;14.60;99.90
6520;DHT22;3293;51.690;5.982;2023-03-18T09:32:46;14.40;99.90
6520;DHT22;3293;51.690;5.982;2023-03-18T09:37:46;14.40;99.90
6520;DHT22;3293;51.690;5.982;2023-03-18T09:42:58;14.60;99.90
6520;DHT22;3293;51.690;5.982;2023-03-18T09:48:19;14.80;99.90
6520;DHT22;3293;51.690;5.982;2023-03-18T09:53:39;14.80;99.90
6520;DHT22;3293;51.690;5.982;2023-03-18T10:03:58;15.10;99.90
6520;DHT22;3293;51.690;5.982;2023-03-18T10:14:36;15.30;99.90
6520;DHT22;3293;51.690;5.982;2023-03-18T10:19:43;15.60;99.90
6520;DHT22;3293;51.690;5.982;2023-03-18T10:41:20;15.90;99.90
6520;DHT22;3293;51.690;5.982;2023-03-18T10:46:23;15.90;99.90
6520;DHT22;3293;51.690;5.982;2023-03-18T10:51:35;16.00;99.90
6520;DHT22;3293;51.690;5.982;2023-03-18T10:56:39;16.00;99.90
6520;DHT22;3293;51.690;5.982;2023-03-18T11:01:39;16.20;99.90
6520;DHT22;3293;51.690;5.982;2023-03-18T11:06:57;16.20;99.90
6520;DHT22;3293;51.690;5.982;2023-03-18T11:12:04;16.20;99.90
6520;DHT22;3293;51.690;5.982;2023-03-18T11:17:16;16.20;99.90
6520;DHT22;3293;51.690;5.982;2023-03-18T11:22:21;16.50;99.90
6520;DHT22;3293;51.690;5.982;2023-03-18T11:27:25;16.60;99.90
6520;DHT22;3293;51.690;5.982;2023-03-18T11:32:28;16.90;99.90
6520;DHT22;3293;51.690;5.982;2023-03-18T11:42:32;17.00;99.90
6520;DHT22;3293;51.690;5.982;2023-03-18T11:47:32;16.90;99.90
6520;DHT22;3293;51.690;5.982;2023-03-18T12:14:33;17.30;99.90
6520;DHT22;3293;51.690;5.982;2023-03-18T12:20:06;17.30;99.90
6520;DHT22;3293;51.690;5.982;2023-03-18T12:25:44;17.50;99.90
6520;DHT22;3293;51.690;5.982;2023-03-18T12:31:37;17.60;99.90
6520;DHT22;3293;51.690;5.982;2023-03-18T12:42:01;17.80;99.90
6520;DHT22;3293;51.690;5.982;2023-03-18T12:47:06;17.70;99.90
6520;DHT22;3293;51.690;5.982;2023-03-18T12:52:57;17.60;99.90
6520;DHT22;3293;51.690;5.982;2023-03-18T12:57:51;17.50;99.90
6520;DHT22;3293;51.690;5.982;2023-03-18T13:03:00;17.40;99.90
6520;DHT22;3293;51.690;5.982;2023-03-18T13:08:20;17.10;99.90
6520;DHT22;3293;51.690;5.982;2023-03-18T13:13:23;16.70;99.90
6520;DHT22;3293;51.690;5.982;2023-03-18T13:29:39;16.20;99.90
6520;DHT22;3293;51.690;5.982;2023-03-18T13:40:33;16.60;99.90
6520;DHT22;3293;51.690;5.982;2023-03-18T13:45:39;16.30;99.90
6520;DHT22;3293;51.690;5.982;2023-03-18T13:50:43;16.10;99.90
6520;DHT22;3293;51.690;5.982;2023-03-18T13:56:04;15.90;99.90
6520;DHT22;3293;51.690;5.982;2023-03-18T14:11:45;15.90;99.90
6520;DHT22;3293;51.690;5.982;2023-03-18T14:16:51;16.30;99.90
6520;DHT22;3293;51.690;5.982;2023-03-18T14:22:03;16.70;99.90
6520;DHT22;3293;51.690;5.982;2023-03-18T14:32:28;16.80;99.90
6520;DHT22;3293;51.690;5.982;2023-03-18T14:37:28;16.90;99.90
6520;DHT22;3293;51.690;5.982;2023-03-18T14:42:39;16.90;99.90
6520;DHT22;3293;51.690;5.982;2023-03-18T14:47:45;17.00;99.90
6520;DHT22;3293;51.690;5.982;2023-03-18T14:58:22;16.90;99.90
6520;DHT22;3293;51.690;5.982;2023-03-18T15:03:32;16.70;99.90
6520;DHT22;3293;51.690;5.982;2023-03-18T15:08:35;16.30;99.90
6520;DHT22;3293;51.690;5.982;2023-03-18T15:13:40;16.10;99.90
6520;DHT22;3293;51.690;5.982;2023-03-18T15:18:41;15.80;99.90
6520;DHT22;3293;51.690;5.982;2023-03-18T15:23:47;15.70;99.90
6520;DHT22;3293;51.690;5.982;2023-03-18T15:28:56;15.70;99.90
6520;DHT22;3293;51.690;5.982;2023-03-18T15:34:19;15.70;99.90
6520;DHT22;3293;51.690;5.982;2023-03-18T15:44:28;16.00;99.90
6520;DHT22;3293;51.690;5.982;2023-03-18T15:49:28;16.10;99.90
6520;DHT22;3293;51.690;5.982;2023-03-18T15:54:38;16.10;99.90
6520;DHT22;3293;51.690;5.982;2023-03-18T15:59:38;16.00;99.90
6520;DHT22;3293;51.690;5.982;2023-03-18T16:04:39;16.00;99.90
6520;DHT22;3293;51.690;5.982;2023-03-18T16:09:42;15.90;99.90
6520;DHT22;3293;51.690;5.982;2023-03-18T16:14:43;15.90;99.90
6520;DHT22;3293;51.690;5.982;2023-03-18T16:19:45;15.70;99.90
6520;DHT22;3293;51.690;5.982;2023-03-18T16:24:45;15.50;99.90
6520;DHT22;3293;51.690;5.982;2023-03-18T16:29:46;15.30;99.90
6520;DHT22;3293;51.690;5.982;2023-03-18T16:34:47;15.30;99.90
6520;DHT22;3293;51.690;5.982;2023-03-18T16:40:02;15.30;99.90
6520;DHT22;3293;51.690;5.982;2023-03-18T16:45:02;15.50;99.90
6520;DHT22;3293;51.690;5.982;2023-03-18T16:50:16;15.50;99.90
6520;DHT22;3293;51.690;5.982;2023-03-18T16:55:17;15.30;99.90
6520;DHT22;3293;51.690;5.982;2023-03-18T17:00:26;15.10;99.90
6520;DHT22;3293;51.690;5.982;2023-03-18T17:05:30;14.80;99.90
6520;DHT22;3293;51.690;5.982;2023-03-18T17:10:30;14.60;99.90
6520;DHT22;3293;51.690;5.982;2023-03-18T17:15:33;14.50;99.90
6520;DHT22;3293;51.690;5.982;2023-03-18T17:20:36;14.20;99.90
6520;DHT22;3293;51.690;5.982;2023-03-18T17:25:36;14.00;99.90
6520;DHT22;3293;51.690;5.982;2023-03-18T17:30:39;13.80;99.90
6520;DHT22;3293;51.690;5.982;2023-03-18T17:35:39;13.60;99.90
6520;DHT22;3293;51.690;5.982;2023-03-18T17:40:40;13.50;99.90
6520;DHT22;3293;51.690;5.982;2023-03-18T17:45:41;13.40;99.90
6520;DHT22;3293;51.690;5.982;2023-03-18T17:50:42;13.20;99.90
6520;DHT22;3293;51.690;5.982;2023-03-18T17:55:42;13.00;99.90
6520;DHT22;3293;51.690;5.982;2023-03-18T18:00:43;12.90;99.90
6520;DHT22;3293;51.690;5.982;2023-03-18T18:05:44;12.80;99.90
6520;DHT22;3293;51.690;5.982;2023-03-18T18:10:45;12.70;99.90
6520;DHT22;3293;51.690;5.982;2023-03-18T18:15:45;12.60;99.90
6520;DHT22;3293;51.690;5.982;2023-03-18T18:20:50;12.40;99.90
6520;DHT22;3293;51.690;5.982;2023-03-18T18:25:51;12.20;99.90
6520;DHT22;3293;51.690;5.982;2023-03-18T18:30:51;12.10;99.90
6520;DHT22;3293;51.690;5.982;2023-03-18T18:35:51;12.10;99.90
6520;DHT22;3293;51.690;5.982;2023-03-18T18:40:53;12.00;99.90
6520;DHT22;3293;51.690;5.982;2023-03-18T18:45:56;11.90;99.90
6520;DHT22;3293;51.690;5.982;2023-03-18T18:50:57;11.90;99.90
6520;DHT22;3293;51.690;5.982;2023-03-18T18:55:59;11.80;99.90
6520;DHT22;3293;51.690;5.982;2023-03-18T19:00:59;11.90;99.90
6520;DHT22;3293;51.690;5.982;2023-03-18T19:06:00;12.10;99.90
6520;DHT22;3293;51.690;5.982;2023-03-18T19:11:05;12.20;99.90
6520;DHT22;3293;51.690;5.982;2023-03-18T19:16:26;12.30;99.90
6520;DHT22;3293;51.690;5.982;2023-03-18T19:21:27;12.40;99.90
6520;DHT22;3293;51.690;5.982;2023-03-18T19:26:27;12.50;99.90
6520;DHT22;3293;51.690;5.982;2023-03-18T19:31:28;12.50;99.90
6520;DHT22;3293;51.690;5.982;2023-03-18T19:36:36;12.50;99.90
6520;DHT22;3293;51.690;5.982;2023-03-18T19:41:38;12.50;99.90
6520;DHT22;3293;51.690;5.982;2023-03-18T19:46:38;12.50;99.90
6520;DHT22;3293;51.690;5.982;2023-03-18T19:51:38;12.60;99.90
6520;DHT22;3293;51.690;5.982;2023-03-18T19:56:38;12.60;99.90
6520;DHT22;3293;51.690;5.982;2023-03-18T20:01:38;12.80;99.90
6520;DHT22;3293;51.690;5.982;2023-03-18T20:06:39;12.80;99.90
6520;DHT22;3293;51.690;5.982;2023-03-18T20:11:39;12.80;99.90
6520;DHT22;3293;51.690;5.982;2023-03-18T20:16:39;12.80;99.90
6520;DHT22;3293;51.690;5.982;2023-03-18T20:21:40;12.80;99.90
6520;DHT22;3293;51.690;5.982;2023-03-18T20:26:40;12.90;99.90
6520;DHT22;3293;51.690;5.982;2023-03-18T20:31:40;12.80;99.90
6520;DHT22;3293;51.690;5.982;2023-03-18T20:36:41;12.80;99.90
6520;DHT22;3293;51.690;5.982;2023-03-18T20:41:41;12.70;99.90
6520;DHT22;3293;51.690;5.982;2023-03-18T20:46:41;12.70;99.90
6520;DHT22;3293;51.690;5.982;2023-03-18T20:51:41;12.70;99.90
6520;DHT22;3293;51.690;5.982;2023-03-18T20:56:43;12.50;99.90
6520;DHT22;3293;51.690;5.982;2023-03-18T21:01:43;12.40;99.90
6520;DHT22;3293;51.690;5.982;2023-03-18T21:06:43;12.30;99.90
6520;DHT22;3293;51.690;5.982;2023-03-18T21:11:43;12.20;99.90
6520;DHT22;3293;51.690;5.982;2023-03-18T21:16:43;12.20;99.90
6520;DHT22;3293;51.690;5.982;2023-03-18T21:21:44;12.20;99.90
6520;DHT22;3293;51.690;5.982;2023-03-18T21:26:44;12.10;99.90
6520;DHT22;3293;51.690;5.982;2023-03-18T21:31:44;12.00;99.90
6520;DHT22;3293;51.690;5.982;2023-03-18T21:36:45;12.00;99.90
6520;DHT22;3293;51.690;5.982;2023-03-18T21:41:45;12.00;99.90
6520;DHT22;3293;51.690;5.982;2023-03-18T21:46:45;12.00;99.90
6520;DHT22;3293;51.690;5.982;2023-03-18T21:51:45;12.00;99.90
6520;DHT22;3293;51.690;5.982;2023-03-18T21:56:45;12.00;99.90
6520;DHT22;3293;51.690;5.982;2023-03-18T22:01:46;11.90;99.90
6520;DHT22;3293;51.690;5.982;2023-03-18T22:06:48;11.90;99.90
6520;DHT22;3293;51.690;5.982;2023-03-18T22:11:48;11.90;99.90
6520;DHT22;3293;51.690;5.982;2023-03-18T22:16:48;11.80;99.90
6520;DHT22;3293;51.690;5.982;2023-03-18T22:21:48;11.60;99.90
6520;DHT22;3293;51.690;5.982;2023-03-18T22:26:48;11.50;99.90
6520;DHT22;3293;51.690;5.982;2023-03-18T22:31:48;11.40;99.90
6520;DHT22;3293;51.690;5.982;2023-03-18T22:36:48;11.30;99.90
6520;DHT22;3293;51.690;5.982;2023-03-18T22:41:48;11.30;99.90
6520;DHT22;3293;51.690;5.982;2023-03-18T22:46:47;11.40;99.90
6520;DHT22;3293;51.690;5.982;2023-03-18T22:51:47;11.50;99.90
6520;DHT22;3293;51.690;5.982;2023-03-18T22:56:47;11.50;99.90
6520;DHT22;3293;51.690;5.982;2023-03-18T23:01:47;11.50;99.90
6520;DHT22;3293;51.690;5.982;2023-03-18T23:06:47;11.60;99.90
6520;DHT22;3293;51.690;5.982;2023-03-18T23:11:47;11.70;99.90
6520;DHT22;3293;51.690;5.982;2023-03-18T23:16:47;11.80;99.90
6520;DHT22;3293;51.690;5.982;2023-03-18T23:21:46;11.80;99.90
6520;DHT22;3293;51.690;5.982;2023-03-18T23:26:46;11.80;99.90
6520;DHT22;3293;51.690;5.982;2023-03-18T23:31:47;11.80;99.90
6520;DHT22;3293;51.690;5.982;2023-03-18T23:36:47;11.70;99.90
6520;DHT22;3293;51.690;5.982;2023-03-18T23:41:47;11.70;99.90
6520;DHT22;3293;51.690;5.982;2023-03-18T23:46:47;11.70;99.90
6520;DHT22;3293;51.690;5.982;2023-03-18T23:51:47;11.60;99.90
6520;DHT22;3293;51.690;5.982;2023-03-18T23:56:47;11.60;99.90
